Time;durP1;ratioP1;P1;durP2;ratioP2;P2;SDS_P1;SDS_P2;PMS_P1;PMS_P2;Temp;Humidity;BMP_temperature;BMP_pressure;BME280_temperature;BME280_humidity;BME280_pressure;Samples;Min_cycle;Max_cycle;Signal;HPM_P1;HPM_P2
2023/05/16 00:00:05;;;;;;;0.95;0.65;;;;;;;12.18;78.83;101078.16;5213330;28;20025;-90
2023/05/16 00:02:56;;;;;;;0.68;0.60;;;;;;;12.46;77.14;101080.00;5211957;28;20033;-89
2023/05/16 00:05:47;;;;;;;0.45;0.45;;;;;;;12.62;75.57;101086.53;5199524;28;20029;-90
2023/05/16 00:08:38;;;;;;;0.32;0.32;;;;;;;12.57;76.10;101083.16;5211567;28;20040;-90
2023/05/16 00:11:29;;;;;;;0.40;0.40;;;;;;;12.67;74.36;101089.88;5202200;28;20036;-89
2023/05/16 00:14:20;;;;;;;0.40;0.40;;;;;;;12.28;76.92;101077.84;5221412;28;20037;-90
2023/05/16 00:17:11;;;;;;;0.20;0.20;;;;;;;12.44;76.09;101090.56;5201580;28;20541;-89
2023/05/16 00:20:06;;;;;;;0.20;0.20;;;;;;;12.46;76.49;101091.38;5232501;28;20404;-90
2023/05/16 00:22:59;;;;;;;0.20;0.20;;;;;;;12.40;75.14;101096.84;5192753;28;20033;-90
2023/05/16 00:25:50;;;;;;;0.40;0.40;;;;;;;12.41;74.85;101095.94;5208584;28;20021;-90
2023/05/16 00:28:41;;;;;;;0.30;0.30;;;;;;;12.14;76.01;101106.31;5206456;28;20028;-89
2023/05/16 00:31:32;;;;;;;0.52;0.52;;;;;;;12.00;76.29;101108.47;5203741;28;20368;-90
2023/05/16 00:34:23;;;;;;;0.32;0.32;;;;;;;12.02;75.31;101106.66;5197492;28;20380;-90
2023/05/16 00:37:13;;;;;;;0.30;0.30;;;;;;;11.66;76.74;101115.41;5228720;28;20025;-90
2023/05/16 00:40:05;;;;;;;0.22;0.22;;;;;;;11.87;75.36;101111.38;5227997;28;20021;-91
2023/05/16 00:42:56;;;;;;;0.30;0.30;;;;;;;11.88;76.24;101121.00;5232226;28;20077;-90
2023/05/16 00:45:46;;;;;;;0.50;0.50;;;;;;;11.65;76.44;101111.94;5239060;28;20056;-92
2023/05/16 00:48:37;;;;;;;0.30;0.30;;;;;;;11.23;78.68;101116.47;5220374;28;20049;-91
2023/05/16 00:51:28;;;;;;;0.30;0.30;;;;;;;11.39;77.22;101111.72;5238493;22;20102;-83
2023/05/16 00:54:21;;;;;;;0.30;0.30;;;;;;;11.10;79.20;101110.66;5255236;28;20032;-82
2023/05/16 00:57:12;;;;;;;0.60;0.60;;;;;;;11.27;78.79;101113.75;5236945;28;20043;-82
2023/05/16 01:00:05;;;;;;;2.55;1.00;;;;;;;11.37;77.69;101113.50;5230860;28;20050;-83
2023/05/16 01:02:57;;;;;;;0.35;0.35;;;;;;;11.52;77.21;101113.16;5240942;28;20016;-83
2023/05/16 01:05:48;;;;;;;0.30;0.30;;;;;;;11.58;76.72;101112.13;5242844;28;20600;-82
2023/05/16 01:08:39;;;;;;;0.30;0.30;;;;;;;11.54;77.02;101128.88;5238371;28;20047;-81
2023/05/16 01:11:56;;;;;;;0.30;0.30;;;;;;;11.64;76.46;101118.09;5230776;28;20165;-82
2023/05/16 01:15:07;;;;;;;1.40;1.10;;;;;;;11.53;76.89;101122.75;5240642;28;20101;-82
2023/05/16 01:18:07;;;;;;;0.20;0.20;;;;;;;11.58;76.33;101122.63;5243688;28;20028;-81
2023/05/16 01:21:02;;;;;;;0.28;0.28;;;;;;;11.15;78.52;101133.28;5272091;28;20191;-80
2023/05/16 01:24:08;;;;;;;0.93;0.93;;;;;;;10.89;79.47;101136.47;5252965;28;20524;-82
2023/05/16 01:26:59;;;;;;;1.30;0.77;;;;;;;10.83;79.87;101140.09;5248518;28;20039;-81
2023/05/16 01:29:54;;;;;;;0.32;0.32;;;;;;;11.26;77.37;101133.03;5255553;28;20459;-80
2023/05/16 01:32:45;;;;;;;1.10;1.02;;;;;;;11.11;77.78;101136.00;5233353;28;20238;-81
2023/05/16 01:35:42;;;;;;;0.38;0.38;;;;;;;11.11;78.05;101142.13;5247756;28;20024;-82
2023/05/16 01:39:01;;;;;;;0.30;0.30;;;;;;;10.78;78.89;101141.09;5259234;28;20409;-81
2023/05/16 01:42:09;;;;;;;0.30;0.30;;;;;;;11.25;76.11;101143.56;5250452;28;20024;-81
2023/05/16 01:45:11;;;;;;;0.30;0.30;;;;;;;11.08;77.03;101152.69;5281847;28;20036;-80
2023/05/16 01:48:17;;;;;;;0.40;0.40;;;;;;;11.05;77.30;101163.28;5240565;28;20039;-80
2023/05/16 01:51:23;;;;;;;0.30;0.30;;;;;;;11.21;76.08;101160.31;5265654;28;20039;-81
2023/05/16 01:54:17;;;;;;;0.40;0.40;;;;;;;11.00;76.40;101165.13;5257094;28;20040;-82
2023/05/16 01:57:09;;;;;;;;;;;;;;;10.90;76.83;101161.84;5269642;28;20032;-81
2023/05/16 02:00:00;;;;;;;0.65;0.65;;;;;;;11.07;76.04;101174.63;5259734;28;20142;-82
2023/05/16 02:02:51;;;;;;;2.25;0.85;;;;;;;11.01;76.20;101172.09;5258881;28;20028;-82
2023/05/16 02:05:41;;;;;;;0.40;0.40;;;;;;;10.99;76.59;101177.41;5274448;28;20028;-81
2023/05/16 02:08:33;;;;;;;0.30;0.30;;;;;;;10.95;76.49;101186.22;5248707;28;20040;-81
2023/05/16 02:11:23;;;;;;;2.33;2.10;;;;;;;11.07;75.16;101182.50;5259385;28;20035;-81
2023/05/16 02:14:14;;;;;;;0.77;0.77;;;;;;;11.05;75.11;101181.66;5226302;28;20033;-82
2023/05/16 02:17:05;;;;;;;0.75;0.75;;;;;;;10.82;75.92;101188.25;5226804;28;20044;-81
2023/05/16 02:19:56;;;;;;;1.13;0.55;;;;;;;10.95;74.58;101186.22;5229155;28;20397;-81
2023/05/16 02:22:48;;;;;;;0.28;0.28;;;;;;;11.11;74.61;101188.53;5220734;28;20033;-81
2023/05/16 02:25:39;;;;;;;1.90;1.80;;;;;;;10.96;74.98;101182.69;5215349;28;20093;-81
2023/05/16 02:28:30;;;;;;;0.52;0.52;;;;;;;10.70;76.91;101191.13;5210508;28;20041;-81
2023/05/16 02:31:30;;;;;;;0.73;0.73;;;;;;;10.86;75.56;101194.31;5229670;28;20040;-81
2023/05/16 02:34:21;;;;;;;0.47;0.35;;;;;;;10.98;75.20;101199.28;5214811;28;20043;-81
2023/05/16 02:37:12;;;;;;;10.60;2.17;;;;;;;11.00;74.93;101200.13;5227616;28;20028;-81
2023/05/16 02:40:04;;;;;;;0.55;0.52;;;;;;;10.89;75.52;101202.09;5230985;28;20078;-81
2023/05/16 02:42:55;;;;;;;0.30;0.30;;;;;;;10.95;75.22;101209.00;5242644;28;20059;-81
2023/05/16 02:45:46;;;;;;;0.45;0.45;;;;;;;11.07;74.15;101215.75;5235862;28;20033;-81
2023/05/16 02:48:36;;;;;;;0.45;0.45;;;;;;;10.73;76.72;101213.81;5214260;28;20206;-80
2023/05/16 02:51:28;;;;;;;5.05;2.85;;;;;;;11.07;73.63;101221.00;5215323;28;20063;-79
2023/05/16 02:54:37;;;;;;;0.82;0.82;;;;;;;11.23;73.10;101227.66;5216404;28;20028;-81
2023/05/16 02:57:28;;;;;;;0.60;0.60;;;;;;;10.86;75.29;101229.28;5224746;28;20067;-80
2023/05/16 03:00:19;;;;;;;0.75;0.68;;;;;;;10.50;76.57;101231.72;5211515;28;20109;-81
2023/05/16 03:03:10;;;;;;;0.35;0.35;;;;;;;10.93;74.72;101235.28;5223334;28;20549;-80
2023/05/16 03:06:01;;;;;;;0.45;0.45;;;;;;;11.03;74.63;101230.72;5234416;28;20063;-81
2023/05/16 03:08:52;;;;;;;0.52;0.52;;;;;;;11.07;73.42;101240.25;5218299;28;20028;-81
2023/05/16 03:11:44;;;;;;;0.20;0.20;;;;;;;10.76;74.99;101242.63;5220080;28;20517;-81
2023/05/16 03:14:35;;;;;;;0.25;0.25;;;;;;;10.47;75.97;101244.03;5210504;28;20052;-80
2023/05/16 03:17:26;;;;;;;0.22;0.22;;;;;;;10.59;75.22;101245.56;5237866;28;20044;-80
2023/05/16 03:20:16;;;;;;;0.50;0.50;;;;;;;10.53;75.01;101249.19;5260533;28;20094;-81
2023/05/16 03:23:07;;;;;;;0.88;0.88;;;;;;;10.53;74.79;101241.31;5244443;28;20046;-81
2023/05/16 03:25:58;;;;;;;0.43;0.43;;;;;;;10.38;74.66;101248.56;5238050;28;20058;-81
2023/05/16 03:28:50;;;;;;;1.17;0.98;;;;;;;10.70;73.16;101239.22;5254209;28;20028;-81
2023/05/16 03:31:41;;;;;;;3.05;2.38;;;;;;;10.43;74.16;101251.09;5228887;28;20037;-81
2023/05/16 03:34:31;;;;;;;0.38;0.38;;;;;;;10.57;73.43;101247.38;5226212;28;20067;-81
2023/05/16 03:37:22;;;;;;;1.48;0.73;;;;;;;10.11;75.00;101259.50;5215516;28;20119;-80
2023/05/16 03:40:13;;;;;;;0.80;0.80;;;;;;;10.60;72.64;101269.19;5217587;28;20028;-80
2023/05/16 03:43:04;;;;;;;1.20;1.10;;;;;;;10.55;72.28;101258.75;5230713;28;20036;-81
2023/05/16 03:45:55;;;;;;;0.20;0.20;;;;;;;10.29;72.88;101261.78;5226840;28;20522;-80
2023/05/16 03:48:46;;;;;;;1.67;1.58;;;;;;;10.34;72.83;101270.47;5210453;28;20412;-80
2023/05/16 03:51:37;;;;;;;0.30;0.30;;;;;;;10.30;72.15;101279.25;5212660;28;20047;-80
2023/05/16 03:54:28;;;;;;;4.25;1.08;;;;;;;10.51;71.60;101280.69;5219843;28;20033;-81
2023/05/16 03:57:52;;;;;;;0.40;0.40;;;;;;;10.03;73.31;101285.84;5223563;28;20192;-82
2023/05/16 04:00:45;;;;;;;0.30;0.30;;;;;;;9.70;74.72;101283.72;5223168;28;20210;-80
2023/05/16 04:03:37;;;;;;;3.90;1.15;;;;;;;9.83;73.80;101284.41;5233077;28;20049;-79
2023/05/16 04:06:28;;;;;;;1.00;1.00;;;;;;;10.03;72.65;101293.69;5245956;28;20041;-79
2023/05/16 04:09:19;;;;;;;3.53;1.65;;;;;;;9.94;73.14;101297.34;5241316;28;20032;-78
2023/05/16 04:12:09;;;;;;;4.03;1.05;;;;;;;9.98;72.79;101290.28;5246340;28;20133;-78
2023/05/16 04:15:05;;;;;;;1.95;1.80;;;;;;;9.80;73.15;101310.66;5226527;28;20025;-78
2023/05/16 04:17:55;;;;;;;0.40;0.40;;;;;;;9.69;73.63;101310.81;5243944;28;20056;-78
2023/05/16 04:20:46;;;;;;;0.40;0.40;;;;;;;9.67;73.56;101315.19;5246720;28;20032;-80
2023/05/16 04:23:37;;;;;;;2.65;2.28;;;;;;;9.71;73.09;101313.38;5233919;28;20100;-80
2023/05/16 04:26:36;;;;;;;0.30;0.30;;;;;;;10.00;71.64;101315.59;5222102;28;20473;-80
2023/05/16 04:29:26;;;;;;;0.30;0.30;;;;;;;9.97;72.05;101320.00;5234850;28;20093;-79
2023/05/16 04:32:18;;;;;;;0.52;0.52;;;;;;;9.71;72.47;101316.88;5230788;28;20048;-79
2023/05/16 04:35:09;;;;;;;0.20;0.20;;;;;;;9.88;71.35;101326.25;5231250;28;20036;-79
2023/05/16 04:38:01;;;;;;;0.30;0.30;;;;;;;9.68;72.11;101334.38;5230991;28;20157;-79
2023/05/16 04:40:52;;;;;;;13.43;1.90;;;;;;;9.74;71.97;101345.66;5263413;28;20035;-79
2023/05/16 04:43:57;;;;;;;0.30;0.30;;;;;;;9.70;72.07;101338.75;5254450;28;20043;-79
2023/05/16 04:46:48;;;;;;;0.45;0.45;;;;;;;9.50;73.42;101346.88;5240111;28;20039;-79
2023/05/16 04:49:42;;;;;;;0.30;0.30;;;;;;;9.54;73.05;101352.94;5273732;28;20088;-80
2023/05/16 04:52:33;;;;;;;0.98;0.98;;;;;;;9.38;73.50;101347.00;5244161;28;20048;-79
2023/05/16 04:55:27;;;;;;;15.05;8.40;;;;;;;9.51;73.70;101345.09;5237959;28;20036;-80
2023/05/16 04:58:22;;;;;;;0.30;0.30;;;;;;;9.35;74.28;101363.63;5244695;28;20032;-79
2023/05/16 05:01:13;;;;;;;0.93;0.65;;;;;;;8.81;76.74;101366.81;5242813;28;20043;-80
2023/05/16 05:04:04;;;;;;;0.38;0.38;;;;;;;8.97;75.93;101362.28;5266160;28;20183;-79
2023/05/16 05:06:55;;;;;;;0.95;0.95;;;;;;;8.79;76.11;101369.44;5230923;28;20400;-79
2023/05/16 05:09:46;;;;;;;0.45;0.45;;;;;;;9.07;75.55;101371.78;5226797;28;20032;-79
2023/05/16 05:12:37;;;;;;;0.70;0.50;;;;;;;9.08;74.75;101363.03;5229803;28;20119;-79
2023/05/16 05:15:27;;;;;;;0.68;0.68;;;;;;;9.41;73.55;101373.16;5211880;28;20565;-79
2023/05/16 05:18:18;;;;;;;8.32;1.45;;;;;;;9.14;74.77;101369.97;5243104;28;20236;-79
2023/05/16 05:21:09;;;;;;;0.32;0.32;;;;;;;9.04;75.51;101378.78;5245716;28;20069;-80
2023/05/16 05:24:00;;;;;;;1.48;0.95;;;;;;;9.11;75.43;101377.84;5228683;28;20116;-80
2023/05/16 05:26:51;;;;;;;0.90;0.77;;;;;;;9.07;75.47;101381.38;5233821;28;20028;-80
2023/05/16 05:29:42;;;;;;;0.50;0.50;;;;;;;9.25;74.29;101386.44;5246537;28;20088;-80
2023/05/16 05:32:32;;;;;;;0.30;0.30;;;;;;;9.45;74.10;101396.69;5232737;28;20128;-79
2023/05/16 05:35:23;;;;;;;1.58;1.48;;;;;;;9.29;74.83;101385.50;5228701;28;20096;-79
2023/05/16 05:38:15;;;;;;;0.30;0.30;;;;;;;9.32;74.39;101392.47;5224316;28;20028;-80
2023/05/16 05:41:06;;;;;;;0.43;0.40;;;;;;;9.23;75.71;101397.78;5244966;28;20032;-78
2023/05/16 05:43:57;;;;;;;0.82;0.80;;;;;;;9.26;74.85;101409.09;5234177;28;20114;-78
2023/05/16 05:46:47;;;;;;;0.32;0.32;;;;;;;9.24;75.08;101403.03;5220654;28;20028;-79
2023/05/16 05:49:38;;;;;;;1.42;1.33;;;;;;;9.24;75.37;101410.88;5206740;28;20024;-79
2023/05/16 05:52:29;;;;;;;0.85;0.60;;;;;;;8.88;76.18;101417.34;5220329;28;20123;-79
2023/05/16 05:55:20;;;;;;;0.82;0.82;;;;;;;9.25;75.01;101416.97;5223434;28;20036;-79
2023/05/16 05:58:11;;;;;;;0.50;0.50;;;;;;;9.33;74.50;101415.16;5231420;28;20037;-79
2023/05/16 06:01:02;;;;;;;0.50;0.50;;;;;;;9.37;74.26;101422.09;5227744;28;20521;-79
2023/05/16 06:03:53;;;;;;;0.52;0.52;;;;;;;9.39;74.25;101415.06;5214246;28;20146;-79
2023/05/16 06:06:44;;;;;;;0.75;0.75;;;;;;;9.53;73.69;101421.94;5207806;28;20032;-79
2023/05/16 06:09:35;;;;;;;0.30;0.30;;;;;;;9.60;74.08;101421.81;5215111;28;20047;-79
2023/05/16 06:12:25;;;;;;;0.50;0.50;;;;;;;9.51;73.45;101426.31;5206304;28;20044;-79
2023/05/16 06:15:16;;;;;;;1.65;1.55;;;;;;;9.46;74.13;101428.97;5207108;28;20094;-79
2023/05/16 06:18:07;;;;;;;0.73;0.73;;;;;;;9.69;72.69;101436.59;5209174;28;20209;-79
2023/05/16 06:20:58;;;;;;;0.30;0.30;;;;;;;9.51;72.86;101431.53;5209127;28;20035;-79
2023/05/16 06:23:51;;;;;;;0.47;0.47;;;;;;;9.69;72.74;101441.81;5217932;28;20078;-80
2023/05/16 06:26:45;;;;;;;0.30;0.30;;;;;;;9.63;72.58;101447.13;5214010;28;20074;-80
2023/05/16 06:29:35;;;;;;;1.63;1.53;;;;;;;9.60;72.45;101447.16;5255467;28;20044;-80
2023/05/16 06:32:26;;;;;;;0.57;0.57;;;;;;;9.83;71.95;101451.25;5212239;28;20336;-79
2023/05/16 06:35:17;;;;;;;0.30;0.30;;;;;;;9.54;72.86;101452.47;5224714;28;20043;-80
2023/05/16 06:38:08;;;;;;;0.30;0.30;;;;;;;9.80;72.21;101444.31;5242219;28;20041;-80
2023/05/16 06:40:59;;;;;;;0.40;0.40;;;;;;;9.72;72.84;101451.41;5224796;28;20214;-79
2023/05/16 06:43:50;;;;;;;0.30;0.30;;;;;;;9.86;72.47;101452.09;5231641;28;20246;-80
2023/05/16 06:46:41;;;;;;;3.10;1.05;;;;;;;10.00;71.78;101457.16;5226979;28;20123;-80
2023/05/16 06:49:32;;;;;;;3.75;1.30;;;;;;;10.05;70.82;101460.56;5249298;28;20032;-79
2023/05/16 06:52:24;;;;;;;0.63;0.63;;;;;;;10.13;70.45;101463.13;5241320;28;20044;-79
2023/05/16 06:55:15;;;;;;;0.20;0.20;;;;;;;10.25;69.73;101456.84;5238275;28;20091;-80
2023/05/16 06:58:06;;;;;;;2.83;0.43;;;;;;;10.32;69.37;101455.00;5259929;28;20031;-79
2023/05/16 07:00:57;;;;;;;6.32;1.23;;;;;;;10.29;69.55;101452.41;5246682;28;20104;-79
2023/05/16 07:03:47;;;;;;;0.52;0.52;;;;;;;10.30;69.63;101459.41;5235102;28;20027;-79
2023/05/16 07:09:11;;;;;;;0.70;0.70;;;;;;;10.15;69.16;101461.34;5227860;28;20071;-81
2023/05/16 07:12:02;;;;;;;0.30;0.30;;;;;;;10.36;68.63;101460.19;5206088;28;20174;-81
2023/05/16 07:14:52;;;;;;;0.35;0.35;;;;;;;10.44;68.57;101459.22;5218353;28;20051;-82
2023/05/16 07:17:43;;;;;;;0.50;0.50;;;;;;;10.33;67.47;101460.22;5217050;28;20502;-81
2023/05/16 07:20:35;;;;;;;0.30;0.30;;;;;;;10.52;67.95;101467.84;5198839;28;20088;-81
2023/05/16 07:23:25;;;;;;;3.90;1.25;;;;;;;10.60;67.58;101468.63;5217757;28;20048;-82
2023/05/16 07:26:17;;;;;;;0.60;0.60;;;;;;;10.37;68.13;101471.56;5197236;28;20036;-82
2023/05/16 07:29:08;;;;;;;0.77;0.77;;;;;;;10.47;67.69;101472.28;5197252;28;20115;-80
2023/05/16 07:31:59;;;;;;;0.20;0.20;;;;;;;10.56;67.32;101482.66;5207752;28;20060;-81
2023/05/16 07:34:49;;;;;;;0.47;0.47;;;;;;;10.68;66.95;101482.47;5195938;28;20167;-81
2023/05/16 07:37:42;;;;;;;0.50;0.50;;;;;;;10.61;66.32;101480.84;5199229;28;20052;-82
2023/05/16 07:40:32;;;;;;;0.30;0.30;;;;;;;10.65;66.00;101473.78;5193358;28;20120;-80
2023/05/16 07:43:23;;;;;;;1.08;0.93;;;;;;;10.44;66.21;101477.59;5192122;28;20073;-82
2023/05/16 07:46:14;;;;;;;0.47;0.47;;;;;;;10.42;65.87;101474.13;5197766;28;20509;-82
2023/05/16 07:49:05;;;;;;;0.40;0.40;;;;;;;10.50;66.00;101482.75;5192853;28;20550;-82
2023/05/16 07:51:56;;;;;;;10.55;3.22;;;;;;;10.52;66.26;101471.34;5214167;28;20455;-81
2023/05/16 07:54:46;;;;;;;0.20;0.20;;;;;;;10.59;64.66;101477.38;5196663;28;20025;-82
2023/05/16 07:57:37;;;;;;;0.98;0.98;;;;;;;10.53;64.07;101472.22;5217979;28;20433;-81
2023/05/16 08:00:28;;;;;;;0.25;0.25;;;;;;;10.55;63.27;101480.91;5215165;28;20037;-82
2023/05/16 08:03:19;;;;;;;7.75;1.50;;;;;;;10.74;63.96;101480.66;5197789;28;20033;-82
2023/05/16 08:06:10;;;;;;;0.40;0.40;;;;;;;10.65;62.04;101482.53;5211799;28;20041;-82
2023/05/16 08:09:01;;;;;;;0.30;0.30;;;;;;;10.79;61.77;101481.44;5211974;28;20135;-82
2023/05/16 08:11:52;;;;;;;0.40;0.40;;;;;;;10.84;62.31;101469.13;5213932;28;20089;-80
2023/05/16 08:14:43;;;;;;;0.35;0.35;;;;;;;10.87;61.93;101482.16;5217724;28;20029;-82
2023/05/16 08:17:34;;;;;;;0.28;0.28;;;;;;;10.90;60.33;101478.66;5199570;28;20037;-82
2023/05/16 08:20:25;;;;;;;0.20;0.20;;;;;;;10.94;61.56;101477.69;5198843;28;20115;-81
2023/05/16 08:23:15;;;;;;;0.45;0.45;;;;;;;11.00;61.83;101482.84;5205531;28;20061;-80
2023/05/16 08:26:06;;;;;;;0.57;0.57;;;;;;;11.06;61.30;101474.88;5215908;28;20059;-80
2023/05/16 08:28:57;;;;;;;0.40;0.40;;;;;;;11.08;61.26;101486.19;5201486;28;20072;-81
2023/05/16 08:31:48;;;;;;;0.30;0.30;;;;;;;11.12;60.25;101476.50;5211459;28;20052;-81
2023/05/16 08:34:39;;;;;;;0.50;0.50;;;;;;;11.24;60.30;101480.72;5203669;28;20410;-80
2023/05/16 08:37:29;;;;;;;0.52;0.52;;;;;;;11.27;61.42;101475.38;5214114;28;20029;-80
2023/05/16 08:40:24;;;;;;;0.20;0.20;;;;;;;11.25;60.79;101478.03;5214129;28;20024;-81
2023/05/16 08:43:15;;;;;;;0.20;0.20;;;;;;;11.48;61.03;101477.63;5230664;28;20123;-80
2023/05/16 08:46:07;;;;;;;0.25;0.25;;;;;;;11.51;60.77;101476.72;5217943;28;20090;-81
2023/05/16 08:49:06;;;;;;;0.30;0.30;;;;;;;11.61;60.14;101470.34;5217991;28;20021;-81
2023/05/16 08:52:00;;;;;;;0.30;0.30;;;;;;;11.76;60.11;101476.22;5214971;28;20117;-81
2023/05/16 08:54:52;;;;;;;11.60;0.60;;;;;;;11.70;59.44;101473.69;5215812;28;20048;-81
2023/05/16 08:57:44;;;;;;;0.20;0.20;;;;;;;11.59;59.01;101481.81;5221544;28;20052;-81
2023/05/16 09:00:35;;;;;;;0.30;0.30;;;;;;;11.58;59.58;101474.81;5205517;28;20132;-81
2023/05/16 09:03:27;;;;;;;2.78;0.82;;;;;;;11.30;58.82;101484.06;5223078;28;20124;-81
2023/05/16 09:06:18;;;;;;;0.30;0.30;;;;;;;11.24;59.71;101484.19;5202113;28;20033;-81
2023/05/16 09:09:11;;;;;;;0.20;0.20;;;;;;;11.46;60.41;101487.31;5197264;28;20040;-81
2023/05/16 09:12:02;;;;;;;0.40;0.40;;;;;;;11.50;60.51;101483.72;5214506;28;20041;-82
2023/05/16 09:14:55;;;;;;;0.52;0.52;;;;;;;11.61;59.41;101478.25;5215348;28;20115;-81
2023/05/16 09:17:46;;;;;;;0.28;0.28;;;;;;;11.64;58.57;101470.31;5206510;28;20048;-82
2023/05/16 09:20:45;;;;;;;2.95;0.75;;;;;;;11.64;58.11;101472.94;5221238;28;20200;-81
2023/05/16 09:23:36;;;;;;;0.30;0.30;;;;;;;11.75;57.85;101477.13;5212808;28;20492;-81
2023/05/16 09:26:27;;;;;;;0.20;0.20;;;;;;;11.71;58.68;101471.06;5203947;28;20024;-81
2023/05/16 09:29:18;;;;;;;0.40;0.40;;;;;;;11.80;58.45;101477.88;5202333;28;20376;-81
2023/05/16 09:32:11;;;;;;;0.30;0.30;;;;;;;11.94;59.96;101465.31;5217576;28;20041;-81
2023/05/16 09:35:02;;;;;;;0.68;0.68;;;;;;;12.03;59.36;101460.78;5193427;28;20051;-80
2023/05/16 09:37:53;;;;;;;0.90;0.90;;;;;;;12.11;57.95;101458.84;5202347;28;20029;-82
2023/05/16 09:40:44;;;;;;;0.50;0.50;;;;;;;12.00;57.65;101476.66;5208444;28;20020;-81
2023/05/16 09:43:38;;;;;;;0.52;0.52;;;;;;;12.11;58.02;101474.66;5217293;28;20040;-82
2023/05/16 09:46:30;;;;;;;0.20;0.20;;;;;;;12.15;57.17;101471.06;5213173;28;20048;-81
2023/05/16 09:49:21;;;;;;;0.20;0.20;;;;;;;12.26;57.32;101471.72;5198161;28;20032;-82
2023/05/16 09:52:15;;;;;;;0.30;0.30;;;;;;;11.96;55.64;101479.31;5197656;28;20198;-82
2023/05/16 09:55:07;;;;;;;0.20;0.20;;;;;;;12.12;56.68;101466.75;5196409;28;20124;-81
2023/05/16 09:57:58;;;;;;;0.57;0.57;;;;;;;12.11;56.65;101472.00;5209565;28;20039;-81
2023/05/16 10:00:50;;;;;;;0.20;0.20;;;;;;;11.93;56.00;101476.75;5206076;28;20123;-81
2023/05/16 10:03:42;;;;;;;0.20;0.20;;;;;;;12.00;54.63;101466.13;5199028;28;20036;-81
2023/05/16 10:06:33;;;;;;;0.45;0.35;;;;;;;12.22;56.74;101471.81;5229116;28;20481;-81
2023/05/16 10:09:24;;;;;;;0.52;0.52;;;;;;;12.19;56.07;101464.81;5217531;28;20246;-81
2023/05/16 10:12:15;;;;;;;0.52;0.52;;;;;;;12.31;57.03;101471.59;5191548;28;20048;-81
2023/05/16 10:15:07;;;;;;;0.70;0.70;;;;;;;12.43;57.30;101460.78;5202742;28;20032;-82
2023/05/16 10:17:59;;;;;;;0.20;0.20;;;;;;;12.56;55.80;101458.72;5215727;28;20486;-82
2023/05/16 10:20:54;;;;;;;4.55;0.55;;;;;;;12.67;55.64;101457.63;5218366;28;20462;-83
2023/05/16 10:23:47;;;;;;;0.70;0.70;;;;;;;12.76;54.80;101457.41;5198857;28;20032;-82
2023/05/16 10:26:38;;;;;;;0.80;0.80;;;;;;;12.82;55.06;101462.50;5201119;28;20098;-81
2023/05/16 10:29:29;;;;;;;0.60;0.60;;;;;;;12.86;52.52;101464.16;5202837;28;20033;-82
2023/05/16 10:32:22;;;;;;;0.30;0.30;;;;;;;12.90;53.23;101462.31;5205507;28;20044;-81
2023/05/16 10:35:13;;;;;;;0.30;0.30;;;;;;;12.83;51.70;101472.16;5201125;28;20028;-81
2023/05/16 10:38:06;;;;;;;0.20;0.20;;;;;;;12.92;52.69;101468.41;5207709;28;20039;-81
2023/05/16 10:40:57;;;;;;;6.50;0.53;;;;;;;13.05;52.40;101474.22;5199669;28;20012;-81
2023/05/16 10:43:58;;;;;;;0.22;0.22;;;;;;;12.97;53.35;101474.44;5201531;28;20772;-82
2023/05/16 10:46:49;;;;;;;0.63;0.63;;;;;;;13.00;53.26;101465.59;5203750;28;20040;-82
2023/05/16 10:49:43;;;;;;;0.95;0.60;;;;;;;13.02;53.56;101469.91;5210538;28;20095;-81
2023/05/16 10:52:34;;;;;;;0.30;0.30;;;;;;;12.85;51.61;101470.31;5200059;28;20158;-81
2023/05/16 10:55:24;;;;;;;1.35;1.25;;;;;;;13.02;51.98;101461.13;5203275;28;20461;-81
2023/05/16 10:58:38;;;;;;;0.52;0.52;;;;;;;13.05;51.70;101454.03;5202749;28;20043;-81
2023/05/16 11:01:32;;;;;;;0.40;0.40;;;;;;;13.20;51.45;101455.38;5199916;28;20107;-81
2023/05/16 11:04:43;;;;;;;;;;;;;;;13.16;51.81;101445.84;5210054;28;20055;-81
2023/05/16 11:07:37;;;;;;;2.55;0.73;;;;;;;13.47;53.53;101441.56;5209343;28;19925;-81
2023/05/16 11:10:28;;;;;;;0.45;0.45;;;;;;;13.50;51.41;101442.34;5203854;28;20302;-82
2023/05/16 11:13:23;;;;;;;0.20;0.20;;;;;;;13.61;52.63;101449.94;5197397;28;20490;-82
2023/05/16 11:16:27;;;;;;;0.43;0.43;;;;;;;13.64;52.77;101451.63;5214407;28;20029;-81
2023/05/16 11:19:29;;;;;;;0.28;0.28;;;;;;;13.73;52.44;101451.38;5200529;28;20033;-81
2023/05/16 11:22:40;;;;;;;1.75;0.95;;;;;;;13.82;51.43;101451.09;5212925;28;20095;-81
2023/05/16 11:25:39;;;;;;;0.20;0.20;;;;;;;13.78;50.91;101448.59;5212521;28;20052;-82
2023/05/16 11:28:31;;;;;;;0.20;0.20;;;;;;;13.64;51.04;101456.91;5200721;28;20035;-82
2023/05/16 11:31:22;;;;;;;0.20;0.20;;;;;;;13.71;52.24;101454.97;5203254;28;20131;-82
2023/05/16 11:34:13;;;;;;;0.57;0.57;;;;;;;13.61;51.87;101451.69;5199096;28;20029;-82
2023/05/16 11:37:04;;;;;;;0.40;0.40;;;;;;;13.57;51.66;101453.56;5201565;28;20463;-81
2023/05/16 11:40:00;;;;;;;0.85;0.75;;;;;;;13.68;52.68;101464.69;5218804;28;20076;-83
2023/05/16 11:42:50;;;;;;;0.30;0.30;;;;;;;13.54;51.37;101470.34;5216702;28;20038;-81
2023/05/16 11:45:41;;;;;;;0.30;0.30;;;;;;;13.49;53.00;101469.59;5233660;28;20454;-82
2023/05/16 11:48:32;;;;;;;0.20;0.20;;;;;;;13.48;53.80;101478.41;5198270;28;20173;-80
2023/05/16 11:51:23;;;;;;;0.30;0.30;;;;;;;13.61;54.10;101485.97;5203981;28;20041;-81
2023/05/16 11:54:14;;;;;;;0.20;0.20;;;;;;;13.49;54.15;101485.41;5202380;28;20021;-81
2023/05/16 11:57:05;;;;;;;0.20;0.20;;;;;;;13.51;54.93;101494.13;5204607;28;20048;-82
2023/05/16 12:00:02;;;;;;;0.22;0.22;;;;;;;13.54;56.13;101491.41;5222385;28;20029;-82
2023/05/16 12:03:00;;;;;;;0.50;0.50;;;;;;;13.36;57.43;101483.97;5216151;28;20087;-82
2023/05/16 12:05:56;;;;;;;0.20;0.20;;;;;;;13.58;57.29;101481.66;5213810;28;20051;-82
2023/05/16 12:08:50;;;;;;;0.40;0.40;;;;;;;13.43;57.75;101488.19;5237142;28;20043;-81
2023/05/16 12:11:43;;;;;;;0.30;0.30;;;;;;;13.61;57.85;101478.06;5213685;28;20565;-81
2023/05/16 12:14:34;;;;;;;0.40;0.40;;;;;;;13.56;57.26;101487.88;5219954;28;20111;-82
2023/05/16 12:17:25;;;;;;;0.20;0.20;;;;;;;13.77;55.51;101482.00;5210292;28;20040;-81
2023/05/16 12:20:16;;;;;;;0.20;0.20;;;;;;;13.85;55.63;101477.38;5207833;28;20111;-82
2023/05/16 12:23:13;;;;;;;0.47;0.47;;;;;;;14.07;53.70;101468.84;5219264;28;20025;-81
2023/05/16 12:26:25;;;;;;;0.45;0.45;;;;;;;14.07;53.22;101468.84;5217434;28;20410;-81
2023/05/16 12:29:27;;;;;;;0.40;0.40;;;;;;;13.76;52.57;101461.81;5221824;28;20035;-80
2023/05/16 12:32:35;;;;;;;0.20;0.20;;;;;;;13.96;53.15;101469.16;5199756;28;20114;-81
2023/05/16 12:35:33;;;;;;;0.63;0.63;;;;;;;13.94;53.95;101472.75;5238961;28;20032;-81
2023/05/16 12:38:25;;;;;;;0.40;0.40;;;;;;;13.81;53.77;101475.75;5211601;28;20037;-81
2023/05/16 12:41:22;;;;;;;0.30;0.30;;;;;;;13.80;53.63;101476.66;5217458;28;20036;-81
2023/05/16 12:44:16;;;;;;;0.85;0.85;;;;;;;13.87;54.14;101479.97;5213957;28;20605;-81
2023/05/16 12:47:11;;;;;;;0.30;0.30;;;;;;;13.74;54.36;101476.84;5202310;28;20055;-81
2023/05/16 12:50:03;;;;;;;2.88;0.90;;;;;;;13.93;56.04;101474.53;5216931;28;20863;-80
2023/05/16 12:53:00;;;;;;;0.43;0.32;;;;;;;14.00;54.65;101481.34;5208048;28;20549;-81
2023/05/16 12:55:51;;;;;;;0.30;0.30;;;;;;;14.20;55.74;101476.38;5237164;22;20052;-87
2023/05/16 12:58:42;;;;;;;0.22;0.22;;;;;;;14.51;54.49;101475.44;5229053;28;20027;-88
2023/05/16 13:01:34;;;;;;;1.20;0.57;;;;;;;14.51;53.53;101471.03;5220571;28;20084;-88
2023/05/16 13:04:25;;;;;;;0.20;0.20;;;;;;;14.73;52.45;101460.69;5225498;28;20060;-88
2023/05/16 13:07:16;;;;;;;0.20;0.20;;;;;;;14.81;52.20;101473.63;5221315;28;20035;-88
2023/05/16 13:10:11;;;;;;;0.20;0.20;;;;;;;14.79;50.34;101470.19;5221020;28;20167;-88
2023/05/16 13:13:03;;;;;;;0.30;0.30;;;;;;;14.99;43.55;101469.53;5234012;28;20896;-88
2023/05/16 13:15:54;;;;;;;0.32;0.32;;;;;;;14.90;43.05;101469.81;5227672;28;20627;-87
2023/05/16 13:18:45;;;;;;;0.30;0.30;;;;;;;15.02;45.09;101469.41;5218115;28;20040;-87
2023/05/16 13:21:35;;;;;;;0.28;0.28;;;;;;;15.40;43.57;101464.59;5228123;28;20032;-87
2023/05/16 13:24:26;;;;;;;0.55;0.55;;;;;;;15.64;44.89;101464.59;5230892;28;20033;-87
2023/05/16 13:27:17;;;;;;;0.22;0.22;;;;;;;15.57;42.75;101458.66;5219114;28;20083;-87